createdAt,value
2019-05-01T00:01:25.415Z,77.14
2019-05-01T00:04:10.616Z,80.88
2019-05-01T00:06:43.911Z,85.15
2019-05-01T00:09:14.993Z,87.10
2019-05-01T00:11:45.037Z,87.38
2019-05-01T00:14:15.233Z,87.79
2019-05-01T00:16:45.748Z,85.96
2019-05-01T00:19:15.984Z,85.32
2019-05-01T00:21:45.654Z,85.46
2019-05-01T00:24:15.466Z,84.19
2019-05-01T00:26:45.537Z,83.69
2019-05-01T00:29:15.375Z,85.45
2019-05-01T00:31:45.213Z,86.22
2019-05-01T00:34:14.949Z,85.36
2019-05-01T00:36:44.877Z,87.24
2019-05-01T00:39:15.213Z,87.54
2019-05-01T00:41:45.044Z,86.81
2019-05-01T00:44:14.780Z,86.43
2019-05-01T00:46:44.712Z,86.66
2019-05-01T00:49:14.637Z,87.01
2019-05-01T00:51:44.512Z,88.00
2019-05-01T00:54:14.193Z,89.34
2019-05-01T00:56:57.405Z,89.79
2019-05-01T00:59:41.448Z,90.59
2019-05-01T01:02:22.363Z,91.63
2019-05-01T01:04:52.162Z,92.72
2019-05-01T01:07:21.937Z,94.04
2019-05-01T01:09:51.848Z,96.25
2019-05-01T01:12:21.795Z,96.66
2019-05-01T01:14:51.666Z,97.10
2019-05-01T01:17:21.406Z,97.96
2019-05-01T01:19:51.318Z,100.00
2019-05-01T01:22:21.110Z,100.00
2019-05-01T01:24:51.038Z,100.00
2019-05-01T01:27:20.895Z,100.00
2019-05-01T01:29:50.886Z,100.00
2019-05-01T01:32:20.799Z,100.00
2019-05-01T01:34:50.772Z,100.00
2019-05-01T01:37:20.525Z,100.00
2019-05-01T01:39:50.575Z,100.00
2019-05-01T01:42:20.840Z,100.00
2019-05-01T01:45:08.740Z,100.00
2019-05-01T01:47:57.894Z,100.00
2019-05-01T01:50:27.895Z,100.00
2019-05-01T01:52:58.003Z,100.00
2019-05-01T01:55:27.976Z,100.00
2019-05-01T01:57:58.323Z,100.00
2019-05-01T02:00:34.085Z,100.00
2019-05-01T02:03:04.700Z,100.00
2019-05-01T02:05:38.353Z,100.00
2019-05-01T02:08:09.007Z,100.00
2019-05-01T02:10:43.101Z,100.00
2019-05-01T02:13:11.028Z,100.00
2019-05-01T02:15:40.779Z,100.00
2019-05-01T02:18:10.614Z,100.00
2019-05-01T02:20:41.055Z,100.00
2019-05-01T02:23:10.843Z,100.00
2019-05-01T02:25:42.701Z,100.00
2019-05-01T02:28:32.466Z,100.00
2019-05-01T02:31:28.265Z,100.00
2019-05-01T02:33:58.464Z,100.00
2019-05-01T02:36:29.096Z,100.00
2019-05-01T02:39:00.090Z,100.00
2019-05-01T02:41:36.738Z,100.00
2019-05-01T02:44:16.154Z,100.00
2019-05-01T02:46:49.105Z,100.00
2019-05-01T02:49:46.279Z,100.00
2019-05-01T02:52:17.228Z,100.00
2019-05-01T02:54:49.434Z,100.00
2019-05-01T02:57:22.353Z,100.00
2019-05-01T02:59:54.247Z,100.00
2019-05-01T03:02:27.101Z,100.00
2019-05-01T03:04:57.936Z,100.00
2019-05-01T03:07:31.432Z,100.00
2019-05-01T03:10:02.886Z,100.00
2019-05-01T03:12:34.462Z,100.00
2019-05-01T03:15:05.439Z,100.00
2019-05-01T03:17:47.620Z,100.00
2019-05-01T03:20:27.172Z,100.00
2019-05-01T03:23:17.524Z,100.00
2019-05-01T03:25:47.893Z,99.40
2019-05-01T03:28:18.096Z,97.93
2019-05-01T03:30:48.370Z,97.02
2019-05-01T03:33:18.383Z,96.63
2019-05-01T03:35:48.547Z,96.33
2019-05-01T03:38:19.040Z,98.18
2019-05-01T03:40:49.726Z,99.76
2019-05-01T03:43:20.038Z,100.00
2019-05-01T03:45:50.663Z,100.00
2019-05-01T03:48:21.243Z,100.00
2019-05-01T03:50:51.374Z,100.00
2019-05-01T03:53:21.327Z,100.00
2019-05-01T03:55:51.275Z,100.00
2019-05-01T03:58:21.289Z,100.00
2019-05-01T04:01:13.069Z,100.00
2019-05-01T04:03:49.801Z,100.00
2019-05-01T04:06:20.276Z,100.00
2019-05-01T04:08:50.779Z,100.00
2019-05-01T04:11:22.343Z,100.00
2019-05-01T04:13:52.337Z,100.00
2019-05-01T04:16:23.047Z,100.00
2019-05-01T04:18:52.853Z,100.00
2019-05-01T04:21:25.400Z,100.00
2019-05-01T04:23:55.079Z,100.00
2019-05-01T04:26:25.269Z,100.00
2019-05-01T04:29:20.314Z,100.00
2019-05-01T04:31:54.794Z,100.00
2019-05-01T04:34:49.545Z,100.00
2019-05-01T04:37:22.414Z,96.85
2019-05-01T04:39:52.626Z,93.11
2019-05-01T04:42:22.338Z,91.46
2019-05-01T04:44:52.450Z,90.94
2019-05-01T04:47:22.374Z,93.23
2019-05-01T04:49:53.445Z,96.39
2019-05-01T04:52:23.465Z,95.08
2019-05-01T04:54:53.458Z,94.98
2019-05-01T04:57:23.808Z,96.53
2019-05-01T04:59:53.715Z,94.72
2019-05-01T05:02:32.820Z,93.32
2019-05-01T05:05:02.878Z,90.98
2019-05-01T05:07:32.778Z,88.39
2019-05-01T05:10:02.649Z,86.44
2019-05-01T05:12:43.011Z,84.01
2019-05-01T05:15:35.118Z,82.57
2019-05-01T05:18:05.821Z,80.46
2019-05-01T05:20:35.840Z,77.81
2019-05-01T05:23:05.611Z,76.73
2019-05-01T05:25:36.094Z,74.73
2019-05-01T05:28:06.024Z,73.42
2019-05-01T05:30:37.317Z,72.87
2019-05-01T05:33:18.277Z,72.82
2019-05-01T05:35:43.693Z,75.02
2019-05-01T05:38:39.181Z,75.91
2019-05-01T05:41:09.890Z,75.24
2019-05-01T05:43:40.227Z,75.65
2019-05-01T05:46:10.434Z,76.03
2019-05-01T05:48:40.696Z,75.64
2019-05-01T05:51:49.344Z,76.67
2019-05-01T05:54:38.071Z,75.41
2019-05-01T05:57:18.125Z,76.32
2019-05-01T05:59:52.937Z,76.05
2019-05-01T06:03:02.598Z,76.58
2019-05-01T06:05:51.855Z,77.36
2019-05-01T06:08:25.454Z,78.59
2019-05-01T06:11:34.021Z,78.02
2019-05-01T06:14:22.221Z,77.43
2019-05-01T06:17:13.978Z,76.08
2019-05-01T06:19:49.749Z,76.83
2019-05-01T06:22:40.725Z,79.63
2019-05-01T06:25:22.283Z,81.04
2019-05-01T06:27:51.337Z,83.40
2019-05-01T06:30:21.147Z,83.67
2019-05-01T06:32:51.093Z,83.68
2019-05-01T06:35:20.960Z,85.03
2019-05-01T06:38:03.973Z,85.43
2019-05-01T06:40:42.419Z,84.02
2019-05-01T06:44:02.112Z,80.18
2019-05-01T06:46:47.054Z,77.57
2019-05-01T06:49:39.326Z,74.58
2019-05-01T06:52:10.363Z,73.06
2019-05-01T06:54:40.669Z,73.94
2019-05-01T06:57:11.238Z,73.81
2019-05-01T06:59:42.426Z,72.50
2019-05-01T07:02:16.129Z,71.10
2019-05-01T07:04:48.004Z,71.57
2019-05-01T07:07:27.656Z,71.73
2019-05-01T07:09:55.421Z,71.10
2019-05-01T07:12:28.714Z,70.81
2019-05-01T07:15:00.066Z,72.18
2019-05-01T07:17:30.206Z,72.19
2019-05-01T07:20:18.278Z,70.57
2019-05-01T07:22:48.735Z,70.91
2019-05-01T07:25:20.013Z,72.15
2019-05-01T07:27:53.992Z,69.11
2019-05-01T07:30:31.661Z,65.98
2019-05-01T07:33:01.999Z,66.98
2019-05-01T07:35:33.029Z,66.44
2019-05-01T07:38:03.556Z,67.52
2019-05-01T07:40:33.547Z,64.51
2019-05-01T07:43:12.596Z,64.35
2019-05-01T07:46:02.291Z,63.08
2019-05-01T07:48:41.314Z,65.39
2019-05-01T07:51:08.979Z,65.00
2019-05-01T07:53:39.626Z,63.59
2019-05-01T07:56:11.758Z,64.11
2019-05-01T07:58:41.768Z,62.94
2019-05-01T08:01:20.166Z,61.89
2019-05-01T08:03:50.008Z,60.66
2019-05-01T08:06:21.918Z,59.88
2019-05-01T08:08:51.582Z,58.09
2019-05-01T08:11:21.414Z,57.92
2019-05-01T08:13:51.163Z,56.90
2019-05-01T08:16:21.053Z,56.05
2019-05-01T08:19:04.087Z,54.02
2019-05-01T08:22:01.684Z,55.00
2019-05-01T08:24:29.736Z,56.33
2019-05-01T08:27:00.782Z,55.20
2019-05-01T08:29:58.250Z,53.93
2019-05-01T08:32:51.386Z,52.48
2019-05-01T08:35:23.604Z,52.36
2019-05-01T08:37:53.734Z,52.29
2019-05-01T08:40:26.963Z,46.80
2019-05-01T08:42:56.884Z,46.91
2019-05-01T08:45:44.690Z,45.90
2019-05-01T08:48:39.311Z,46.73
2019-05-01T08:51:09.334Z,45.18
2019-05-01T08:53:39.236Z,43.82
2019-05-01T08:56:09.846Z,43.88
2019-05-01T08:58:44.882Z,42.38
2019-05-01T09:01:15.040Z,46.11
2019-05-01T09:03:43.913Z,44.90
2019-05-01T09:06:13.753Z,41.92
2019-05-01T09:08:43.508Z,42.60
2019-05-01T09:11:13.483Z,43.18
2019-05-01T09:13:43.294Z,40.66
2019-05-01T09:16:13.360Z,40.17
2019-05-01T09:18:43.259Z,38.13
2019-05-01T09:21:13.263Z,39.24
2019-05-01T09:23:46.263Z,40.64
2019-05-01T09:26:23.138Z,39.30
2019-05-01T09:28:58.072Z,39.10
2019-05-01T09:31:33.864Z,39.21
2019-05-01T09:34:00.781Z,36.05
2019-05-01T09:36:30.782Z,35.99
2019-05-01T09:39:00.940Z,35.82
2019-05-01T09:41:38.039Z,35.77
2019-05-01T09:44:05.790Z,34.73
2019-05-01T09:46:33.919Z,35.13
2019-05-01T09:49:04.002Z,35.37
2019-05-01T09:51:58.837Z,35.74
2019-05-01T09:54:51.033Z,35.69
2019-05-01T09:57:21.015Z,36.73
2019-05-01T09:59:50.922Z,36.73
2019-05-01T10:02:20.885Z,36.69
2019-05-01T10:04:50.637Z,36.69
2019-05-01T10:07:23.850Z,36.95
2019-05-01T10:09:54.001Z,36.13
2019-05-01T10:12:23.817Z,36.13
2019-05-01T10:14:54.934Z,36.11
2019-05-01T10:17:24.726Z,36.22
2019-05-01T10:19:54.701Z,36.25
2019-05-01T10:22:24.575Z,36.62
2019-05-01T10:24:54.373Z,35.86
2019-05-01T10:27:30.802Z,35.86
2019-05-01T10:30:19.734Z,35.49
2019-05-01T10:32:57.621Z,36.27
2019-05-01T10:35:42.398Z,36.19
2019-05-01T10:38:09.514Z,35.81
2019-05-01T10:40:39.342Z,35.45
2019-05-01T10:43:10.781Z,35.46
2019-05-01T10:45:40.831Z,35.66
2019-05-01T10:48:10.672Z,35.03
2019-05-01T10:50:40.446Z,35.73
2019-05-01T10:53:10.269Z,34.85
2019-05-01T10:55:41.328Z,34.82
2019-05-01T10:58:12.888Z,34.21
2019-05-01T11:00:44.447Z,34.73
2019-05-01T11:03:15.502Z,34.19
2019-05-01T11:05:55.658Z,34.19
2019-05-01T11:08:17.879Z,35.23
2019-05-01T11:10:47.738Z,34.44
2019-05-01T11:13:17.599Z,35.37
2019-05-01T11:15:48.773Z,34.71
2019-05-01T11:18:18.540Z,34.71
2019-05-01T11:20:48.176Z,34.86
2019-05-01T11:23:18.110Z,33.97
2019-05-01T11:25:47.885Z,33.97
2019-05-01T11:28:17.889Z,34.53
2019-05-01T11:30:47.777Z,33.90
2019-05-01T11:33:35.006Z,34.51
2019-05-01T11:36:35.780Z,32.37
2019-05-01T11:39:42.103Z,33.02
2019-05-01T11:42:14.047Z,32.71
2019-05-01T11:44:43.831Z,31.88
2019-05-01T11:47:13.745Z,32.42
2019-05-01T11:49:43.617Z,32.85
2019-05-01T11:52:13.493Z,31.84
2019-05-01T11:54:43.360Z,32.37
2019-05-01T11:57:13.222Z,31.97
2019-05-01T11:59:43.246Z,31.39
2019-05-01T12:02:13.198Z,31.17
2019-05-01T12:04:43.223Z,31.85
2019-05-01T12:07:13.072Z,32.50
2019-05-01T12:09:44.049Z,32.07
2019-05-01T12:12:15.793Z,31.59
2019-05-01T12:14:45.834Z,30.83
2019-05-01T12:17:34.557Z,31.64
2019-05-01T12:20:04.879Z,32.20
2019-05-01T12:22:34.863Z,30.58
2019-05-01T12:25:06.348Z,30.53
2019-05-01T12:27:36.077Z,30.57
2019-05-01T12:30:06.434Z,29.57
2019-05-01T12:32:37.472Z,28.60
2019-05-01T12:35:07.781Z,27.88
2019-05-01T12:37:43.537Z,28.37
2019-05-01T12:40:21.608Z,28.73
2019-05-01T12:42:53.009Z,28.62
2019-05-01T12:45:22.873Z,27.65
2019-05-01T12:48:03.858Z,27.39
2019-05-01T12:50:33.814Z,25.75
2019-05-01T12:53:19.840Z,26.41
2019-05-01T12:56:08.594Z,27.07
2019-05-01T12:58:39.711Z,25.68
2019-05-01T13:01:09.597Z,26.48
2019-05-01T13:03:39.452Z,26.36
2019-05-01T13:06:09.267Z,26.60
2019-05-01T13:08:39.190Z,26.32
2019-05-01T13:11:09.150Z,25.26
2019-05-01T13:13:39.002Z,25.80
2019-05-01T13:16:08.921Z,25.89
2019-05-01T13:18:38.793Z,24.86
2019-05-01T13:21:08.420Z,23.92
2019-05-01T13:23:38.261Z,25.69
2019-05-01T13:26:25.978Z,26.04
2019-05-01T13:29:00.694Z,25.18
2019-05-01T13:31:49.321Z,26.40
2019-05-01T13:34:19.138Z,24.77
2019-05-01T13:37:02.127Z,24.81
2019-05-01T13:39:20.450Z,25.01
2019-05-01T13:41:50.316Z,25.96
2019-05-01T13:44:20.171Z,26.83
2019-05-01T13:46:50.042Z,27.13
2019-05-01T13:49:19.814Z,26.69
2019-05-01T13:51:49.661Z,26.12
2019-05-01T13:54:19.333Z,26.35
2019-05-01T13:56:49.210Z,26.94
2019-05-01T13:59:19.076Z,25.32
2019-05-01T14:01:50.404Z,24.90
2019-05-01T14:04:21.669Z,24.45
2019-05-01T14:06:51.370Z,24.92
2019-05-01T14:09:25.593Z,24.51
2019-05-01T14:11:55.406Z,25.38
2019-05-01T14:14:25.331Z,24.99
2019-05-01T14:16:55.255Z,25.99
2019-05-01T14:19:25.097Z,26.08
2019-05-01T14:24:44.189Z,23.69
2019-05-01T14:27:13.960Z,24.55
2019-05-01T14:29:43.776Z,23.86
2019-05-01T14:32:13.534Z,24.16
2019-05-01T14:34:43.311Z,25.12
2019-05-01T14:37:13.231Z,26.51
2019-05-01T14:39:44.281Z,27.76
2019-05-01T14:42:14.096Z,27.22
2019-05-01T14:44:43.991Z,28.72
2019-05-01T14:47:15.169Z,28.78
2019-05-01T14:49:44.969Z,26.98
2019-05-01T14:52:14.796Z,27.22
2019-05-01T14:54:44.737Z,28.56
2019-05-01T14:57:14.499Z,29.72
2019-05-01T14:59:44.222Z,31.31
2019-05-01T15:02:15.361Z,32.68
2019-05-01T15:04:46.496Z,32.87
2019-05-01T15:07:16.215Z,33.73
2019-05-01T15:09:47.405Z,33.78
2019-05-01T15:12:18.623Z,33.85
2019-05-01T15:15:24.178Z,33.81
2019-05-01T15:18:11.603Z,33.70
2019-05-01T15:20:41.425Z,33.99
2019-05-01T15:23:11.213Z,32.29
2019-05-01T15:25:41.045Z,30.42
2019-05-01T15:28:11.076Z,30.59
2019-05-01T15:30:41.085Z,31.37
2019-05-01T15:33:12.125Z,32.07
2019-05-01T15:35:42.023Z,33.74
2019-05-01T15:38:11.844Z,35.31
2019-05-01T15:41:04.758Z,36.25
2019-05-01T15:43:36.279Z,36.79
2019-05-01T15:46:05.960Z,37.38
2019-05-01T15:48:35.939Z,37.77
2019-05-01T15:51:05.822Z,37.82
2019-05-01T15:53:35.610Z,38.03
2019-05-01T15:56:05.487Z,37.86
2019-05-01T15:58:35.358Z,37.71
2019-05-01T16:01:05.376Z,36.80
2019-05-01T16:03:35.236Z,35.91
2019-05-01T16:06:08.149Z,35.38
2019-05-01T16:08:36.749Z,35.19
2019-05-01T16:11:13.487Z,35.89
2019-05-01T16:13:43.370Z,35.89
2019-05-01T16:16:14.545Z,36.02
2019-05-01T16:18:44.312Z,36.04
2019-05-01T16:21:14.035Z,36.11
2019-05-01T16:23:45.112Z,36.83
2019-05-01T16:26:14.971Z,36.83
2019-05-01T16:28:44.691Z,37.32
2019-05-01T16:31:14.645Z,37.32
2019-05-01T16:33:45.789Z,36.71
2019-05-01T16:36:15.571Z,36.71
2019-05-01T16:39:03.405Z,37.35
2019-05-01T16:41:33.141Z,37.98
2019-05-01T16:44:03.056Z,37.96
2019-05-01T16:46:32.921Z,37.97
2019-05-01T16:49:02.780Z,38.72
2019-05-01T16:51:32.723Z,38.03
2019-05-01T16:54:02.595Z,37.74
2019-05-01T16:56:33.737Z,37.97
2019-05-01T16:59:03.765Z,38.45
2019-05-01T17:01:44.523Z,38.27
2019-05-01T17:04:31.685Z,38.27
2019-05-01T17:07:09.566Z,39.12
2019-05-01T17:10:00.679Z,40.10
2019-05-01T17:12:34.626Z,40.61
2019-05-01T17:15:04.426Z,40.33
2019-05-01T17:17:34.165Z,39.54
2019-05-01T17:20:04.173Z,38.70
2019-05-01T17:22:33.950Z,38.74
2019-05-01T17:25:04.286Z,38.74
2019-05-01T17:27:34.089Z,39.09
2019-05-01T17:30:05.772Z,39.33
2019-05-01T17:32:39.853Z,39.50
2019-05-01T17:35:08.008Z,40.17
2019-05-01T17:37:37.949Z,40.17
2019-05-01T17:40:08.318Z,39.97
2019-05-01T17:42:38.929Z,40.19
2019-05-01T17:45:09.041Z,39.20
2019-05-01T17:47:39.490Z,39.68
2019-05-01T17:50:09.672Z,40.44
2019-05-01T17:52:39.495Z,40.98
2019-05-01T17:55:09.893Z,43.75
2019-05-01T17:57:39.765Z,42.90
2019-05-01T18:00:33.705Z,41.55
2019-05-01T18:03:31.379Z,41.25
2019-05-01T18:06:10.416Z,38.92
2019-05-01T18:08:40.241Z,37.50
2019-05-01T18:11:14.332Z,37.61
2019-05-01T18:13:41.883Z,37.74
2019-05-01T18:16:11.764Z,38.02
2019-05-01T18:18:42.069Z,39.07
2019-05-01T18:21:12.705Z,38.71
2019-05-01T18:24:01.566Z,38.18
2019-05-01T18:26:47.012Z,37.70
2019-05-01T18:29:23.131Z,37.06
2019-05-01T18:31:54.080Z,37.04
2019-05-01T18:34:24.073Z,36.96
2019-05-01T18:37:01.793Z,37.26
2019-05-01T18:39:35.268Z,37.77
2019-05-01T18:42:07.315Z,37.72
2019-05-01T18:44:37.240Z,37.98
2019-05-01T18:47:07.154Z,38.44
2019-05-01T18:49:37.212Z,39.16
2019-05-01T18:52:07.454Z,39.52
2019-05-01T18:54:37.462Z,39.32
2019-05-01T18:57:08.799Z,38.05
2019-05-01T18:59:38.573Z,37.99
2019-05-01T19:02:08.402Z,38.74
2019-05-01T19:04:39.482Z,38.78
2019-05-01T19:07:09.371Z,38.84
2019-05-01T19:09:39.966Z,38.89
2019-05-01T19:12:11.212Z,38.76
2019-05-01T19:14:41.200Z,38.21
2019-05-01T19:17:11.303Z,38.63
2019-05-01T19:19:42.355Z,38.85
2019-05-01T19:22:12.310Z,39.42
2019-05-01T19:24:42.363Z,39.71
2019-05-01T19:27:14.313Z,40.04
2019-05-01T19:29:44.055Z,39.95
2019-05-01T19:32:14.323Z,40.16
2019-05-01T19:34:44.207Z,40.22
2019-05-01T19:37:16.544Z,40.76
2019-05-01T19:39:48.973Z,41.34
2019-05-01T19:42:21.568Z,41.57
2019-05-01T19:44:51.044Z,41.49
2019-05-01T19:47:21.982Z,41.18
2019-05-01T19:49:54.309Z,40.96
2019-05-01T19:52:23.736Z,41.05
2019-05-01T19:54:54.928Z,41.13
2019-05-01T19:57:24.598Z,41.29
2019-05-01T19:59:54.533Z,41.59
2019-05-01T20:02:25.693Z,41.27
2019-05-01T20:04:55.388Z,41.54
2019-05-01T20:07:25.315Z,41.88
2019-05-01T20:09:57.373Z,41.62
2019-05-01T20:12:29.803Z,41.86
2019-05-01T20:14:59.083Z,41.53
2019-05-01T20:17:29.329Z,41.42
2019-05-01T20:19:59.078Z,41.22
2019-05-01T20:22:29.033Z,42.32
2019-05-01T20:24:58.998Z,43.06
2019-05-01T20:27:28.722Z,43.76
2019-05-01T20:29:58.586Z,44.14
2019-05-01T20:32:28.773Z,43.52
2019-05-01T20:34:59.474Z,42.51
2019-05-01T20:37:29.253Z,41.31
2019-05-01T20:40:10.386Z,40.76
2019-05-01T20:42:30.564Z,41.29
2019-05-01T20:45:05.370Z,42.37
2019-05-01T20:47:35.286Z,43.13
2019-05-01T20:50:05.386Z,43.35
2019-05-01T20:52:35.218Z,43.05
2019-05-01T20:55:05.565Z,42.21
2019-05-01T20:57:37.053Z,43.02
2019-05-01T21:00:11.261Z,43.58
2019-05-01T21:02:42.887Z,44.45
2019-05-01T21:05:29.735Z,48.79
2019-05-01T21:08:07.535Z,54.66
2019-05-01T21:11:06.058Z,59.41
2019-05-01T21:13:34.398Z,63.04
2019-05-01T21:16:04.653Z,65.01
2019-05-01T21:18:34.549Z,64.44
2019-05-01T21:21:04.479Z,62.29
2019-05-01T21:23:34.531Z,61.37
2019-05-01T21:26:04.412Z,59.35
2019-05-01T21:28:34.220Z,60.29
2019-05-01T21:31:04.181Z,60.62
2019-05-01T21:33:34.278Z,59.18
2019-05-01T21:36:08.349Z,60.59
2019-05-01T21:38:35.971Z,60.79
2019-05-01T21:41:05.778Z,60.82
2019-05-01T21:43:37.155Z,61.12
2019-05-01T21:46:06.997Z,59.56
2019-05-01T21:48:36.719Z,58.32
2019-05-01T21:51:07.453Z,59.30
2019-05-01T21:53:42.041Z,61.80
2019-05-01T21:56:09.731Z,62.12
2019-05-01T21:58:39.548Z,61.23
2019-05-01T22:01:09.446Z,62.27
2019-05-01T22:03:40.363Z,63.00
2019-05-01T22:06:11.404Z,62.69
2019-05-01T22:08:41.892Z,62.53
2019-05-01T22:11:12.157Z,62.81
2019-05-01T22:13:42.136Z,63.58
2019-05-01T22:16:22.259Z,63.37
2019-05-01T22:18:58.640Z,63.07
2019-05-01T22:21:50.397Z,62.56
2019-05-01T22:24:39.226Z,63.89
2019-05-01T22:27:16.545Z,65.96
2019-05-01T22:29:52.373Z,69.44
2019-05-01T22:32:36.002Z,73.74
2019-05-01T22:35:30.990Z,77.26
2019-05-01T22:38:00.809Z,79.29
2019-05-01T22:40:40.121Z,82.63
2019-05-01T22:43:09.949Z,85.73
2019-05-01T22:45:40.969Z,87.16
2019-05-01T22:48:10.870Z,87.98
2019-05-01T22:50:40.673Z,88.92
2019-05-01T22:53:13.081Z,90.55
2019-05-01T22:55:42.062Z,91.26
2019-05-01T22:58:11.981Z,92.19
2019-05-01T23:00:53.674Z,92.65
2019-05-01T23:03:27.848Z,93.38
2019-05-01T23:06:02.036Z,93.17
2019-05-01T23:08:29.539Z,96.66
2019-05-01T23:10:59.253Z,99.17
2019-05-01T23:13:29.414Z,100.00
2019-05-01T23:15:59.459Z,100.00
2019-05-01T23:18:29.314Z,100.00
2019-05-01T23:20:59.132Z,100.00
2019-05-01T23:23:29.072Z,100.00
2019-05-01T23:25:58.868Z,100.00
2019-05-01T23:28:28.576Z,100.00
2019-05-01T23:30:58.757Z,100.00
2019-05-01T23:33:28.617Z,100.00
2019-05-01T23:35:58.534Z,100.00
2019-05-01T23:38:28.621Z,100.00
2019-05-01T23:40:58.381Z,100.00
2019-05-01T23:43:29.048Z,100.00
2019-05-01T23:45:58.930Z,100.00
2019-05-01T23:48:28.634Z,100.00
2019-05-01T23:50:58.386Z,100.00
2019-05-01T23:53:28.281Z,100.00
2019-05-01T23:55:59.948Z,100.00
2019-05-01T23:58:29.800Z,100.00
